createdAt,value
2018-02-19T00:04:23.561Z,94.01
2018-02-19T00:14:24.034Z,94.53
2018-02-19T00:24:19.791Z,95.47
2018-02-19T00:34:19.172Z,93.59
2018-02-19T00:44:23.617Z,89.78
2018-02-19T00:54:22.198Z,88.78
2018-02-19T01:04:17.228Z,88.53
2018-02-19T01:14:17.522Z,88.88
2018-02-19T01:24:18.210Z,88.46
2018-02-19T01:34:20.807Z,88.26
2018-02-19T01:44:18.445Z,87.84
2018-02-19T01:54:13.141Z,87.88
2018-02-19T02:04:13.321Z,86.83
2018-02-19T02:14:17.634Z,88.78
2018-02-19T02:24:16.073Z,86.52
2018-02-19T02:34:17.144Z,86.72
2018-02-19T02:44:17.842Z,87.66
2018-02-19T02:54:18.140Z,85.89
2018-02-19T03:04:24.005Z,87.66
2018-02-19T03:14:20.745Z,86.62
2018-02-19T03:24:18.989Z,85.47
2018-02-19T03:34:14.873Z,85.61
2018-02-19T03:44:18.512Z,86.66
2018-02-19T03:54:15.587Z,86.14
2018-02-19T04:04:16.368Z,86.77
2018-02-19T04:14:15.265Z,86.55
2018-02-19T04:24:13.276Z,87.23
2018-02-19T04:34:13.193Z,87.39
2018-02-19T04:44:11.937Z,85.41
2018-02-19T04:54:12.200Z,87.12
2018-02-19T05:04:17.917Z,87.01
2018-02-19T05:14:19.999Z,87.23
2018-02-19T05:24:16.963Z,86.18
2018-02-19T05:34:18.290Z,86.70
2018-02-19T05:44:27.289Z,88.06
2018-02-19T05:54:27.157Z,85.61
2018-02-19T06:04:19.608Z,83.42
2018-02-19T06:14:21.334Z,84.99
2018-02-19T06:24:21.854Z,85.51
2018-02-19T06:34:24.642Z,85.58
2018-02-19T06:44:21.577Z,84.74
2018-02-19T06:54:25.367Z,85.85
2018-02-19T07:04:23.061Z,83.13
2018-02-19T07:14:26.113Z,81.56
2018-02-19T07:24:29.507Z,83.13
2018-02-19T07:34:32.644Z,83.86
2018-02-19T07:44:31.794Z,78.70
2018-02-19T07:54:26.807Z,79.64
2018-02-19T08:04:28.165Z,78.60
2018-02-19T08:14:28.573Z,76.33
2018-02-19T08:24:32.835Z,77.41
2018-02-19T08:34:32.220Z,75.05
2018-02-19T08:44:31.715Z,76.65
2018-02-19T08:54:15.386Z,60.04
2018-02-19T09:03:44.712Z,65.30
2018-02-19T09:13:22.628Z,65.97
2018-02-19T09:23:00.423Z,65.16
2018-02-19T09:32:38.084Z,66.63
2018-02-19T09:42:16.619Z,63.75
2018-02-19T09:51:53.104Z,62.67
2018-02-19T10:01:30.925Z,61.29
2018-02-19T10:11:08.663Z,61.11
2018-02-19T10:20:46.653Z,63.45
2018-02-19T10:30:24.929Z,60.04
2018-02-19T10:40:02.688Z,59.59
2018-02-19T10:49:40.294Z,59.80
2018-02-19T10:59:17.777Z,60.32
2018-02-19T11:08:55.510Z,59.85
2018-02-19T11:18:37.211Z,59.39
2018-02-19T11:28:05.945Z,61.36
2018-02-19T11:37:43.298Z,60.56
2018-02-19T11:47:20.967Z,61.23
2018-02-19T11:56:59.098Z,57.98
2018-02-19T12:06:37.339Z,58.03
2018-02-19T12:16:19.852Z,52.29
2018-02-19T12:25:49.069Z,55.10
2018-02-19T12:35:25.972Z,56.18
2018-02-19T12:45:02.829Z,55.17
2018-02-19T12:54:40.061Z,54.64
2018-02-19T13:04:17.443Z,54.68
2018-02-19T13:13:55.541Z,53.09
2018-02-19T13:23:33.493Z,55.04
2018-02-19T13:33:11.767Z,53.43
2018-02-19T13:42:48.728Z,54.57
2018-02-19T13:52:30.315Z,56.41
2018-02-19T14:01:59.976Z,52.03
2018-02-19T14:11:37.253Z,53.49
2018-02-19T14:21:14.349Z,58.03
2018-02-19T14:30:51.720Z,58.99
2018-02-19T14:40:31.488Z,57.75
2018-02-19T14:50:00.648Z,59.61
2018-02-19T14:59:42.742Z,58.44
2018-02-19T15:09:12.527Z,57.69
2018-02-19T15:18:54.472Z,59.48
2018-02-19T15:28:23.355Z,59.07
2018-02-19T15:38:00.292Z,62.04
2018-02-19T15:47:36.722Z,61.02
2018-02-19T15:57:18.040Z,61.68
2018-02-19T16:06:46.883Z,63.48
2018-02-19T16:16:23.867Z,63.30
2018-02-19T16:26:00.954Z,65.62
2018-02-19T16:35:37.846Z,66.38
2018-02-19T16:45:19.723Z,68.37
2018-02-19T16:54:48.310Z,68.60
2018-02-19T17:04:25.625Z,69.68
2018-02-19T17:14:23.217Z,74.07
2018-02-19T17:24:21.271Z,70.31
2018-02-19T17:34:21.079Z,72.71
2018-02-19T17:44:20.261Z,72.47
2018-02-19T17:54:18.450Z,73.55
2018-02-19T18:04:14.351Z,72.50
2018-02-19T18:14:14.880Z,73.96
2018-02-19T18:24:13.830Z,77.03
2018-02-19T18:34:13.357Z,76.09
2018-02-19T18:44:10.567Z,77.34
2018-02-19T18:54:08.702Z,75.36
2018-02-19T19:04:01.658Z,76.12
2018-02-19T19:13:58.325Z,75.67
2018-02-19T19:23:58.953Z,74.84
2018-02-19T19:34:01.190Z,77.03
2018-02-19T19:44:02.188Z,77.66
2018-02-19T19:54:02.426Z,74.63
2018-02-19T20:04:01.876Z,74.63
2018-02-19T20:14:03.390Z,75.71
2018-02-19T20:24:04.298Z,75.36
2018-02-19T20:34:04.090Z,73.27
2018-02-19T20:44:01.327Z,75.15
2018-02-19T20:54:01.847Z,74.94
2018-02-19T21:04:02.076Z,75.15
2018-02-19T21:14:01.669Z,75.15
2018-02-19T21:23:59.953Z,74.73
2018-02-19T21:33:59.268Z,76.61
2018-02-19T21:43:53.585Z,78.91
2018-02-19T21:53:50.110Z,79.47
2018-02-19T22:03:50.412Z,81.81
2018-02-19T22:13:51.050Z,84.99
2018-02-19T22:23:51.064Z,84.95
2018-02-19T22:33:51.150Z,88.23
2018-02-19T22:43:51.243Z,88.23
2018-02-19T22:53:51.174Z,88.17
2018-02-19T23:03:52.456Z,91.20
2018-02-19T23:13:53.198Z,91.72
2018-02-19T23:23:50.992Z,88.69
2018-02-19T23:33:51.182Z,91.87
2018-02-19T23:43:52.456Z,90.89
2018-02-19T23:53:52.015Z,92.71
